Pine Forge, Pennsylvania
Current Conditions -  °F | °C
As of 2:54 PM on Saturday 20 Dec 2014 (Local Time) from KPTW Reporting Station
Overcast Overcast  
Wind Chill: 33°   Ceiling: 3000
Heat Index: 33°   Visibility: 10mi
Dew Point: 21°   Wind: 3mph
Humidity: 61%   Direction: 350°N
Pressure: 30.26"   Gusts: NA
Location:  40.28°N, 75.69°W
Report Text: KPTW 201954Z AUTO 35003KT 10SM OVC030 01/M06 A3026 RMK AO2 SLP247 T00061061
Loading
Personal Weather Stations






























Interactive Weather Map New forecast layout! Learn more

10-Day Weather Forecast

Advertisements
Track Severe Weather on mobile